sensor_id;sensor_type;location;lat;lon;timestamp;P1;durP1;ratioP1;P2;durP2;ratioP2
8281;SDS011;25606;42.686;23.136;2023-08-08T00:00:26;2.27;;;2.00;;
8281;SDS011;25606;42.686;23.136;2023-08-08T00:02:53;2.40;;;2.20;;
8281;SDS011;25606;42.686;23.136;2023-08-08T00:05:20;2.87;;;2.30;;
8281;SDS011;25606;42.686;23.136;2023-08-08T00:07:48;2.10;;;2.00;;
8281;SDS011;25606;42.686;23.136;2023-08-08T00:10:15;3.67;;;2.50;;
8281;SDS011;25606;42.686;23.136;2023-08-08T00:12:43;2.57;;;2.20;;
8281;SDS011;25606;42.686;23.136;2023-08-08T00:15:10;3.10;;;2.13;;
8281;SDS011;25606;42.686;23.136;2023-08-08T00:17:39;2.50;;;2.30;;
8281;SDS011;25606;42.686;23.136;2023-08-08T00:20:06;2.70;;;2.50;;
8281;SDS011;25606;42.686;23.136;2023-08-08T00:22:34;2.27;;;2.17;;
8281;SDS011;25606;42.686;23.136;2023-08-08T00:25:01;2.60;;;2.40;;
8281;SDS011;25606;42.686;23.136;2023-08-08T00:27:29;2.87;;;2.67;;
8281;SDS011;25606;42.686;23.136;2023-08-08T00:29:56;2.90;;;2.70;;
8281;SDS011;25606;42.686;23.136;2023-08-08T00:32:23;2.47;;;2.27;;
8281;SDS011;25606;42.686;23.136;2023-08-08T00:34:52;2.73;;;2.53;;
8281;SDS011;25606;42.686;23.136;2023-08-08T00:37:20;2.63;;;2.43;;
8281;SDS011;25606;42.686;23.136;2023-08-08T00:39:47;2.90;;;2.70;;
8281;SDS011;25606;42.686;23.136;2023-08-08T00:42:14;2.63;;;2.43;;
8281;SDS011;25606;42.686;23.136;2023-08-08T00:44:42;2.67;;;2.33;;
8281;SDS011;25606;42.686;23.136;2023-08-08T00:47:09;4.50;;;2.37;;
8281;SDS011;25606;42.686;23.136;2023-08-08T00:49:37;2.93;;;2.40;;
8281;SDS011;25606;42.686;23.136;2023-08-08T00:52:06;2.17;;;1.97;;
8281;SDS011;25606;42.686;23.136;2023-08-08T00:54:33;2.43;;;2.30;;
8281;SDS011;25606;42.686;23.136;2023-08-08T00:57:01;2.23;;;2.10;;
8281;SDS011;25606;42.686;23.136;2023-08-08T00:59:28;2.87;;;2.07;;
8281;SDS011;25606;42.686;23.136;2023-08-08T01:01:57;2.47;;;2.27;;
8281;SDS011;25606;42.686;23.136;2023-08-08T01:04:27;2.70;;;2.20;;
8281;SDS011;25606;42.686;23.136;2023-08-08T01:07:00;2.30;;;2.20;;
8281;SDS011;25606;42.686;23.136;2023-08-08T01:09:37;2.30;;;2.10;;
8281;SDS011;25606;42.686;23.136;2023-08-08T01:12:06;3.13;;;2.40;;
8281;SDS011;25606;42.686;23.136;2023-08-08T01:14:35;2.30;;;2.20;;
8281;SDS011;25606;42.686;23.136;2023-08-08T01:17:03;2.60;;;2.40;;
8281;SDS011;25606;42.686;23.136;2023-08-08T01:19:31;2.60;;;2.40;;
8281;SDS011;25606;42.686;23.136;2023-08-08T01:22:01;2.80;;;2.60;;
8281;SDS011;25606;42.686;23.136;2023-08-08T01:24:30;2.63;;;2.43;;
8281;SDS011;25606;42.686;23.136;2023-08-08T01:26:59;3.23;;;2.83;;
8281;SDS011;25606;42.686;23.136;2023-08-08T01:29:27;2.57;;;2.40;;
8281;SDS011;25606;42.686;23.136;2023-08-08T01:31:54;3.10;;;2.90;;
8281;SDS011;25606;42.686;23.136;2023-08-08T01:34:22;4.40;;;2.63;;
8281;SDS011;25606;42.686;23.136;2023-08-08T01:36:51;2.60;;;2.40;;
8281;SDS011;25606;42.686;23.136;2023-08-08T01:39:22;4.83;;;2.97;;
8281;SDS011;25606;42.686;23.136;2023-08-08T01:41:52;3.47;;;2.50;;
8281;SDS011;25606;42.686;23.136;2023-08-08T01:44:21;2.93;;;2.60;;
8281;SDS011;25606;42.686;23.136;2023-08-08T01:46:50;2.90;;;2.53;;
8281;SDS011;25606;42.686;23.136;2023-08-08T01:49:17;2.80;;;2.60;;
8281;SDS011;25606;42.686;23.136;2023-08-08T01:51:45;2.97;;;2.50;;
8281;SDS011;25606;42.686;23.136;2023-08-08T01:54:13;2.77;;;2.57;;
8281;SDS011;25606;42.686;23.136;2023-08-08T01:56:40;2.70;;;2.50;;
8281;SDS011;25606;42.686;23.136;2023-08-08T01:59:09;3.00;;;2.80;;
8281;SDS011;25606;42.686;23.136;2023-08-08T02:01:37;4.43;;;2.70;;
8281;SDS011;25606;42.686;23.136;2023-08-08T02:04:05;2.77;;;2.57;;
8281;SDS011;25606;42.686;23.136;2023-08-08T02:06:35;3.87;;;3.03;;
8281;SDS011;25606;42.686;23.136;2023-08-08T02:09:02;3.10;;;2.80;;
8281;SDS011;25606;42.686;23.136;2023-08-08T02:11:30;3.60;;;2.90;;
8281;SDS011;25606;42.686;23.136;2023-08-08T02:13:57;4.13;;;2.77;;
8281;SDS011;25606;42.686;23.136;2023-08-08T02:16:26;3.00;;;2.80;;
8281;SDS011;25606;42.686;23.136;2023-08-08T02:18:53;3.20;;;3.00;;
8281;SDS011;25606;42.686;23.136;2023-08-08T02:21:20;4.00;;;2.90;;
8281;SDS011;25606;42.686;23.136;2023-08-08T02:23:48;3.30;;;3.10;;
8281;SDS011;25606;42.686;23.136;2023-08-08T02:26:15;2.83;;;2.63;;
8281;SDS011;25606;42.686;23.136;2023-08-08T02:28:43;3.50;;;3.00;;
8281;SDS011;25606;42.686;23.136;2023-08-08T02:31:10;3.20;;;3.00;;
8281;SDS011;25606;42.686;23.136;2023-08-08T02:33:39;3.20;;;2.90;;
8281;SDS011;25606;42.686;23.136;2023-08-08T02:36:06;5.30;;;3.67;;
8281;SDS011;25606;42.686;23.136;2023-08-08T02:38:33;3.57;;;2.77;;
8281;SDS011;25606;42.686;23.136;2023-08-08T02:41:01;3.53;;;3.23;;
8281;SDS011;25606;42.686;23.136;2023-08-08T02:43:28;3.37;;;3.07;;
8281;SDS011;25606;42.686;23.136;2023-08-08T02:45:55;3.63;;;3.37;;
8281;SDS011;25606;42.686;23.136;2023-08-08T02:48:23;3.83;;;3.53;;
8281;SDS011;25606;42.686;23.136;2023-08-08T02:50:51;3.50;;;3.20;;
8281;SDS011;25606;42.686;23.136;2023-08-08T02:53:19;3.73;;;3.43;;
8281;SDS011;25606;42.686;23.136;2023-08-08T02:55:46;4.47;;;3.50;;
8281;SDS011;25606;42.686;23.136;2023-08-08T02:58:13;4.00;;;3.70;;
8281;SDS011;25606;42.686;23.136;2023-08-08T03:00:41;5.70;;;3.30;;
8281;SDS011;25606;42.686;23.136;2023-08-08T03:03:08;4.13;;;3.83;;
8281;SDS011;25606;42.686;23.136;2023-08-08T03:05:35;4.13;;;3.73;;
8281;SDS011;25606;42.686;23.136;2023-08-08T03:08:05;4.27;;;3.97;;
8281;SDS011;25606;42.686;23.136;2023-08-08T03:10:32;4.33;;;3.93;;
8281;SDS011;25606;42.686;23.136;2023-08-08T03:12:59;4.60;;;4.30;;
8281;SDS011;25606;42.686;23.136;2023-08-08T03:15:27;4.50;;;4.10;;
8281;SDS011;25606;42.686;23.136;2023-08-08T03:17:54;4.13;;;3.83;;
8281;SDS011;25606;42.686;23.136;2023-08-08T03:20:22;5.03;;;4.47;;
8281;SDS011;25606;42.686;23.136;2023-08-08T03:22:49;4.10;;;3.80;;
8281;SDS011;25606;42.686;23.136;2023-08-08T03:25:18;4.63;;;4.23;;
8281;SDS011;25606;42.686;23.136;2023-08-08T03:27:45;4.33;;;3.93;;
8281;SDS011;25606;42.686;23.136;2023-08-08T03:30:13;4.30;;;4.00;;
8281;SDS011;25606;42.686;23.136;2023-08-08T03:32:41;4.43;;;4.10;;
8281;SDS011;25606;42.686;23.136;2023-08-08T03:35:08;4.57;;;4.27;;
8281;SDS011;25606;42.686;23.136;2023-08-08T03:37:35;4.50;;;4.10;;
8281;SDS011;25606;42.686;23.136;2023-08-08T03:40:03;5.37;;;4.53;;
8281;SDS011;25606;42.686;23.136;2023-08-08T03:42:34;4.87;;;4.50;;
8281;SDS011;25606;42.686;23.136;2023-08-08T03:45:01;4.60;;;4.10;;
8281;SDS011;25606;42.686;23.136;2023-08-08T03:47:28;4.60;;;4.30;;
8281;SDS011;25606;42.686;23.136;2023-08-08T03:49:56;4.30;;;4.00;;
8281;SDS011;25606;42.686;23.136;2023-08-08T03:52:23;5.37;;;4.97;;
8281;SDS011;25606;42.686;23.136;2023-08-08T03:54:51;5.90;;;4.77;;
8281;SDS011;25606;42.686;23.136;2023-08-08T03:57:18;4.70;;;4.40;;
8281;SDS011;25606;42.686;23.136;2023-08-08T03:59:47;5.77;;;5.37;;
8281;SDS011;25606;42.686;23.136;2023-08-08T04:02:14;6.77;;;4.97;;
8281;SDS011;25606;42.686;23.136;2023-08-08T04:04:41;5.47;;;4.97;;
8281;SDS011;25606;42.686;23.136;2023-08-08T04:07:09;5.50;;;5.00;;
8281;SDS011;25606;42.686;23.136;2023-08-08T04:09:36;6.30;;;5.80;;
8281;SDS011;25606;42.686;23.136;2023-08-08T04:12:10;5.27;;;4.87;;
8281;SDS011;25606;42.686;23.136;2023-08-08T04:14:38;5.57;;;5.10;;
8281;SDS011;25606;42.686;23.136;2023-08-08T04:17:06;5.60;;;5.20;;
8281;SDS011;25606;42.686;23.136;2023-08-08T04:19:34;5.70;;;5.23;;
8281;SDS011;25606;42.686;23.136;2023-08-08T04:22:01;5.60;;;5.20;;
8281;SDS011;25606;42.686;23.136;2023-08-08T04:24:29;5.60;;;5.20;;
8281;SDS011;25606;42.686;23.136;2023-08-08T04:26:56;5.83;;;5.20;;
8281;SDS011;25606;42.686;23.136;2023-08-08T04:29:23;5.33;;;4.90;;
8281;SDS011;25606;42.686;23.136;2023-08-08T04:31:50;5.70;;;5.20;;
8281;SDS011;25606;42.686;23.136;2023-08-08T04:34:19;4.57;;;4.20;;
8281;SDS011;25606;42.686;23.136;2023-08-08T04:36:47;3.80;;;3.50;;
8281;SDS011;25606;42.686;23.136;2023-08-08T04:39:14;4.10;;;3.80;;
8281;SDS011;25606;42.686;23.136;2023-08-08T04:41:41;4.37;;;3.67;;
8281;SDS011;25606;42.686;23.136;2023-08-08T04:44:08;3.33;;;3.13;;
8281;SDS011;25606;42.686;23.136;2023-08-08T04:46:36;4.20;;;3.57;;
8281;SDS011;25606;42.686;23.136;2023-08-08T04:49:03;3.83;;;3.50;;
8281;SDS011;25606;42.686;23.136;2023-08-08T04:51:32;3.67;;;3.37;;
8281;SDS011;25606;42.686;23.136;2023-08-08T04:53:59;3.60;;;3.40;;
8281;SDS011;25606;42.686;23.136;2023-08-08T04:56:26;3.40;;;3.20;;
8281;SDS011;25606;42.686;23.136;2023-08-08T04:58:54;3.37;;;3.17;;
8281;SDS011;25606;42.686;23.136;2023-08-08T05:01:21;3.70;;;3.40;;
8281;SDS011;25606;42.686;23.136;2023-08-08T05:03:49;5.23;;;3.03;;
8281;SDS011;25606;42.686;23.136;2023-08-08T05:06:16;3.70;;;3.40;;
8281;SDS011;25606;42.686;23.136;2023-08-08T05:08:45;3.27;;;2.97;;
8281;SDS011;25606;42.686;23.136;2023-08-08T05:11:12;3.30;;;3.10;;
8281;SDS011;25606;42.686;23.136;2023-08-08T05:13:39;3.37;;;3.17;;
8281;SDS011;25606;42.686;23.136;2023-08-08T05:16:08;4.07;;;3.77;;
8281;SDS011;25606;42.686;23.136;2023-08-08T05:18:35;3.47;;;3.17;;
8281;SDS011;25606;42.686;23.136;2023-08-08T05:21:02;3.27;;;3.03;;
8281;SDS011;25606;42.686;23.136;2023-08-08T05:23:29;4.13;;;3.83;;
8281;SDS011;25606;42.686;23.136;2023-08-08T05:25:58;3.83;;;3.57;;
8281;SDS011;25606;42.686;23.136;2023-08-08T05:28:25;4.27;;;3.73;;
8281;SDS011;25606;42.686;23.136;2023-08-08T05:30:53;4.07;;;3.77;;
8281;SDS011;25606;42.686;23.136;2023-08-08T05:33:21;4.70;;;3.77;;
8281;SDS011;25606;42.686;23.136;2023-08-08T05:35:48;4.17;;;3.73;;
8281;SDS011;25606;42.686;23.136;2023-08-08T05:38:16;4.10;;;3.80;;
8281;SDS011;25606;42.686;23.136;2023-08-08T05:40:43;4.27;;;3.97;;
8281;SDS011;25606;42.686;23.136;2023-08-08T05:43:12;4.17;;;3.87;;
8281;SDS011;25606;42.686;23.136;2023-08-08T05:45:42;4.43;;;4.13;;
8281;SDS011;25606;42.686;23.136;2023-08-08T05:48:09;4.67;;;4.27;;
8281;SDS011;25606;42.686;23.136;2023-08-08T05:50:37;5.20;;;4.80;;
8281;SDS011;25606;42.686;23.136;2023-08-08T05:53:04;5.23;;;4.83;;
8281;SDS011;25606;42.686;23.136;2023-08-08T05:55:32;4.63;;;4.33;;
8281;SDS011;25606;42.686;23.136;2023-08-08T05:57:59;4.63;;;4.23;;
8281;SDS011;25606;42.686;23.136;2023-08-08T06:00:28;5.00;;;4.70;;
8281;SDS011;25606;42.686;23.136;2023-08-08T06:02:55;4.60;;;4.20;;
8281;SDS011;25606;42.686;23.136;2023-08-08T06:05:22;4.63;;;4.10;;
8281;SDS011;25606;42.686;23.136;2023-08-08T06:07:50;4.57;;;4.27;;
8281;SDS011;25606;42.686;23.136;2023-08-08T06:10:17;4.00;;;3.77;;
8281;SDS011;25606;42.686;23.136;2023-08-08T06:12:44;4.30;;;3.77;;
8281;SDS011;25606;42.686;23.136;2023-08-08T06:15:12;4.63;;;4.33;;
8281;SDS011;25606;42.686;23.136;2023-08-08T06:17:41;3.93;;;3.67;;
8281;SDS011;25606;42.686;23.136;2023-08-08T06:20:08;3.57;;;3.37;;
8281;SDS011;25606;42.686;23.136;2023-08-08T06:22:36;3.43;;;3.23;;
8281;SDS011;25606;42.686;23.136;2023-08-08T06:25:04;3.50;;;3.20;;
8281;SDS011;25606;42.686;23.136;2023-08-08T06:27:31;3.63;;;2.87;;
8281;SDS011;25606;42.686;23.136;2023-08-08T06:29:59;3.17;;;2.97;;
8281;SDS011;25606;42.686;23.136;2023-08-08T06:32:28;2.90;;;2.70;;
8281;SDS011;25606;42.686;23.136;2023-08-08T06:34:56;3.10;;;2.90;;
8281;SDS011;25606;42.686;23.136;2023-08-08T06:37:24;3.10;;;2.90;;
8281;SDS011;25606;42.686;23.136;2023-08-08T06:39:51;3.27;;;3.07;;
8281;SDS011;25606;42.686;23.136;2023-08-08T06:42:18;2.87;;;2.67;;
8281;SDS011;25606;42.686;23.136;2023-08-08T06:44:45;3.30;;;2.70;;
8281;SDS011;25606;42.686;23.136;2023-08-08T06:47:13;4.67;;;2.80;;
8281;SDS011;25606;42.686;23.136;2023-08-08T06:49:40;3.07;;;2.40;;
8281;SDS011;25606;42.686;23.136;2023-08-08T06:52:09;2.73;;;2.53;;
8281;SDS011;25606;42.686;23.136;2023-08-08T06:54:36;2.70;;;2.50;;
8281;SDS011;25606;42.686;23.136;2023-08-08T06:57:03;2.90;;;2.70;;
8281;SDS011;25606;42.686;23.136;2023-08-08T06:59:31;2.40;;;2.20;;
8281;SDS011;25606;42.686;23.136;2023-08-08T07:01:58;2.83;;;2.63;;
8281;SDS011;25606;42.686;23.136;2023-08-08T07:04:26;2.90;;;2.60;;
8281;SDS011;25606;42.686;23.136;2023-08-08T07:06:53;2.80;;;2.60;;
8281;SDS011;25606;42.686;23.136;2023-08-08T07:09:22;2.83;;;2.53;;
8281;SDS011;25606;42.686;23.136;2023-08-08T07:11:49;4.17;;;2.77;;
8281;SDS011;25606;42.686;23.136;2023-08-08T07:14:17;3.23;;;2.13;;
8281;SDS011;25606;42.686;23.136;2023-08-08T07:16:44;4.13;;;2.37;;
8281;SDS011;25606;42.686;23.136;2023-08-08T07:19:12;2.47;;;2.27;;
8281;SDS011;25606;42.686;23.136;2023-08-08T07:21:40;2.27;;;2.13;;
8281;SDS011;25606;42.686;23.136;2023-08-08T07:24:07;2.57;;;2.33;;
8281;SDS011;25606;42.686;23.136;2023-08-08T07:26:37;2.57;;;2.37;;
8281;SDS011;25606;42.686;23.136;2023-08-08T07:29:05;2.30;;;2.17;;
8281;SDS011;25606;42.686;23.136;2023-08-08T07:31:32;2.80;;;2.43;;
8281;SDS011;25606;42.686;23.136;2023-08-08T07:33:59;2.73;;;2.23;;
8281;SDS011;25606;42.686;23.136;2023-08-08T07:36:27;6.40;;;2.70;;
8281;SDS011;25606;42.686;23.136;2023-08-08T07:38:54;5.60;;;2.73;;
8281;SDS011;25606;42.686;23.136;2023-08-08T07:41:25;6.07;;;2.93;;
8281;SDS011;25606;42.686;23.136;2023-08-08T07:43:54;7.33;;;3.20;;
8281;SDS011;25606;42.686;23.136;2023-08-08T07:46:21;8.37;;;3.20;;
8281;SDS011;25606;42.686;23.136;2023-08-08T07:48:48;9.10;;;3.33;;
8281;SDS011;25606;42.686;23.136;2023-08-08T07:51:15;6.23;;;2.23;;
8281;SDS011;25606;42.686;23.136;2023-08-08T07:53:43;12.47;;;3.97;;
8281;SDS011;25606;42.686;23.136;2023-08-08T07:56:10;10.65;;;3.50;;
8281;SDS011;25606;42.686;23.136;2023-08-08T07:58:37;11.27;;;3.60;;
8281;SDS011;25606;42.686;23.136;2023-08-08T08:01:06;9.83;;;3.63;;
8281;SDS011;25606;42.686;23.136;2023-08-08T08:03:34;9.00;;;3.37;;
8281;SDS011;25606;42.686;23.136;2023-08-08T08:06:02;8.67;;;3.23;;
8281;SDS011;25606;42.686;23.136;2023-08-08T08:08:29;12.05;;;3.92;;
8281;SDS011;25606;42.686;23.136;2023-08-08T08:10:56;12.77;;;3.80;;
8281;SDS011;25606;42.686;23.136;2023-08-08T08:13:24;11.90;;;3.63;;
8281;SDS011;25606;42.686;23.136;2023-08-08T08:15:51;16.25;;;4.65;;
8281;SDS011;25606;42.686;23.136;2023-08-08T08:18:22;12.93;;;3.50;;
8281;SDS011;25606;42.686;23.136;2023-08-08T08:20:50;13.30;;;3.63;;
8281;SDS011;25606;42.686;23.136;2023-08-08T08:23:18;5.77;;;2.40;;
8281;SDS011;25606;42.686;23.136;2023-08-08T08:25:45;8.00;;;3.03;;
8281;SDS011;25606;42.686;23.136;2023-08-08T08:28:13;8.77;;;3.27;;
8281;SDS011;25606;42.686;23.136;2023-08-08T08:30:41;6.17;;;3.07;;
8281;SDS011;25606;42.686;23.136;2023-08-08T08:33:08;7.07;;;3.07;;
8281;SDS011;25606;42.686;23.136;2023-08-08T08:35:37;5.87;;;3.10;;
8281;SDS011;25606;42.686;23.136;2023-08-08T08:38:06;6.63;;;2.97;;
8281;SDS011;25606;42.686;23.136;2023-08-08T08:40:34;3.30;;;2.30;;
8281;SDS011;25606;42.686;23.136;2023-08-08T08:43:03;4.57;;;2.67;;
8281;SDS011;25606;42.686;23.136;2023-08-08T08:45:31;4.53;;;2.37;;
8281;SDS011;25606;42.686;23.136;2023-08-08T08:47:59;5.10;;;2.60;;
8281;SDS011;25606;42.686;23.136;2023-08-08T08:50:27;4.77;;;2.60;;
8281;SDS011;25606;42.686;23.136;2023-08-08T08:52:55;5.37;;;2.47;;
8281;SDS011;25606;42.686;23.136;2023-08-08T08:55:23;5.50;;;2.67;;
8281;SDS011;25606;42.686;23.136;2023-08-08T08:57:51;7.07;;;3.00;;
8281;SDS011;25606;42.686;23.136;2023-08-08T09:00:18;8.13;;;3.23;;
8281;SDS011;25606;42.686;23.136;2023-08-08T09:02:46;5.37;;;2.60;;
8281;SDS011;25606;42.686;23.136;2023-08-08T09:05:13;3.40;;;2.30;;
8281;SDS011;25606;42.686;23.136;2023-08-08T09:07:42;5.23;;;2.87;;
8281;SDS011;25606;42.686;23.136;2023-08-08T09:10:11;4.40;;;2.57;;
8281;SDS011;25606;42.686;23.136;2023-08-08T09:12:38;4.50;;;2.47;;
8281;SDS011;25606;42.686;23.136;2023-08-08T09:15:06;3.67;;;2.37;;
8281;SDS011;25606;42.686;23.136;2023-08-08T09:17:35;5.00;;;2.87;;
8281;SDS011;25606;42.686;23.136;2023-08-08T09:20:04;6.53;;;2.83;;
8281;SDS011;25606;42.686;23.136;2023-08-08T09:22:32;5.63;;;2.87;;
8281;SDS011;25606;42.686;23.136;2023-08-08T09:25:00;3.57;;;2.57;;
8281;SDS011;25606;42.686;23.136;2023-08-08T09:27:30;7.17;;;3.23;;
8281;SDS011;25606;42.686;23.136;2023-08-08T09:29:57;7.23;;;3.07;;
8281;SDS011;25606;42.686;23.136;2023-08-08T09:32:28;5.67;;;2.87;;
8281;SDS011;25606;42.686;23.136;2023-08-08T09:34:56;6.77;;;3.20;;
8281;SDS011;25606;42.686;23.136;2023-08-08T09:37:23;7.67;;;3.13;;
8281;SDS011;25606;42.686;23.136;2023-08-08T09:39:57;10.73;;;3.73;;
8281;SDS011;25606;42.686;23.136;2023-08-08T09:42:26;13.32;;;4.22;;
8281;SDS011;25606;42.686;23.136;2023-08-08T09:44:56;12.98;;;4.03;;
8281;SDS011;25606;42.686;23.136;2023-08-08T09:47:24;12.73;;;4.00;;
8281;SDS011;25606;42.686;23.136;2023-08-08T09:49:55;13.90;;;4.22;;
8281;SDS011;25606;42.686;23.136;2023-08-08T09:52:24;13.95;;;4.28;;
8281;SDS011;25606;42.686;23.136;2023-08-08T09:54:52;13.73;;;4.43;;
8281;SDS011;25606;42.686;23.136;2023-08-08T09:57:20;12.97;;;4.37;;
8281;SDS011;25606;42.686;23.136;2023-08-08T09:59:48;8.23;;;3.23;;
8281;SDS011;25606;42.686;23.136;2023-08-08T10:02:17;10.47;;;4.07;;
8281;SDS011;25606;42.686;23.136;2023-08-08T10:04:45;11.77;;;3.77;;
8281;SDS011;25606;42.686;23.136;2023-08-08T10:07:12;9.83;;;3.70;;
8281;SDS011;25606;42.686;23.136;2023-08-08T10:09:40;7.03;;;2.97;;
8281;SDS011;25606;42.686;23.136;2023-08-08T10:12:07;9.23;;;3.67;;
8281;SDS011;25606;42.686;23.136;2023-08-08T10:14:36;7.00;;;3.30;;
8281;SDS011;25606;42.686;23.136;2023-08-08T10:17:05;7.03;;;3.00;;
8281;SDS011;25606;42.686;23.136;2023-08-08T10:19:34;8.33;;;3.20;;
8281;SDS011;25606;42.686;23.136;2023-08-08T10:22:03;8.63;;;3.37;;
8281;SDS011;25606;42.686;23.136;2023-08-08T10:24:32;7.43;;;2.87;;
8281;SDS011;25606;42.686;23.136;2023-08-08T10:27:01;6.07;;;2.63;;
8281;SDS011;25606;42.686;23.136;2023-08-08T10:29:30;4.80;;;2.50;;
8281;SDS011;25606;42.686;23.136;2023-08-08T10:31:58;5.03;;;2.50;;
8281;SDS011;25606;42.686;23.136;2023-08-08T10:34:27;6.33;;;2.60;;
8281;SDS011;25606;42.686;23.136;2023-08-08T10:36:57;6.73;;;2.43;;
8281;SDS011;25606;42.686;23.136;2023-08-08T10:39:24;8.03;;;3.13;;
8281;SDS011;25606;42.686;23.136;2023-08-08T10:41:51;11.13;;;3.37;;
8281;SDS011;25606;42.686;23.136;2023-08-08T10:44:22;11.10;;;3.47;;
8281;SDS011;25606;42.686;23.136;2023-08-08T10:46:50;6.13;;;2.22;;
8281;SDS011;25606;42.686;23.136;2023-08-08T10:49:17;8.65;;;2.60;;
8281;SDS011;25606;42.686;23.136;2023-08-08T10:51:48;14.25;;;3.25;;
8281;SDS011;25606;42.686;23.136;2023-08-08T10:54:18;9.65;;;3.03;;
8281;SDS011;25606;42.686;23.136;2023-08-08T10:56:50;10.10;;;3.45;;
8281;SDS011;25606;42.686;23.136;2023-08-08T10:59:18;9.25;;;2.92;;
8281;SDS011;25606;42.686;23.136;2023-08-08T11:01:46;7.57;;;2.70;;
8281;SDS011;25606;42.686;23.136;2023-08-08T11:04:15;8.95;;;2.90;;
8281;SDS011;25606;42.686;23.136;2023-08-08T11:06:42;6.20;;;2.40;;
8281;SDS011;25606;42.686;23.136;2023-08-08T11:09:10;9.27;;;2.97;;
8281;SDS011;25606;42.686;23.136;2023-08-08T11:11:40;9.67;;;3.07;;
8281;SDS011;25606;42.686;23.136;2023-08-08T11:14:11;10.20;;;3.23;;
8281;SDS011;25606;42.686;23.136;2023-08-08T11:16:39;8.40;;;2.93;;
8281;SDS011;25606;42.686;23.136;2023-08-08T11:19:06;11.00;;;3.63;;
8281;SDS011;25606;42.686;23.136;2023-08-08T11:21:34;8.87;;;2.93;;
8281;SDS011;25606;42.686;23.136;2023-08-08T11:24:02;5.50;;;2.30;;
8281;SDS011;25606;42.686;23.136;2023-08-08T11:26:29;9.73;;;3.23;;
8281;SDS011;25606;42.686;23.136;2023-08-08T11:28:59;8.93;;;3.00;;
8281;SDS011;25606;42.686;23.136;2023-08-08T11:31:27;7.20;;;2.40;;
8281;SDS011;25606;42.686;23.136;2023-08-08T11:33:55;13.63;;;3.60;;
8281;SDS011;25606;42.686;23.136;2023-08-08T11:36:23;16.38;;;4.28;;
8281;SDS011;25606;42.686;23.136;2023-08-08T11:38:50;13.30;;;3.70;;
8281;SDS011;25606;42.686;23.136;2023-08-08T11:41:19;12.17;;;3.40;;
8281;SDS011;25606;42.686;23.136;2023-08-08T11:43:48;11.30;;;3.28;;
8281;SDS011;25606;42.686;23.136;2023-08-08T11:46:17;12.13;;;3.53;;
8281;SDS011;25606;42.686;23.136;2023-08-08T11:48:46;11.27;;;3.13;;
8281;SDS011;25606;42.686;23.136;2023-08-08T11:51:14;14.27;;;4.00;;
8281;SDS011;25606;42.686;23.136;2023-08-08T11:53:47;8.10;;;3.17;;
8281;SDS011;25606;42.686;23.136;2023-08-08T11:56:15;12.60;;;3.83;;
8281;SDS011;25606;42.686;23.136;2023-08-08T11:58:43;9.52;;;3.17;;
8281;SDS011;25606;42.686;23.136;2023-08-08T12:01:10;11.00;;;4.17;;
8281;SDS011;25606;42.686;23.136;2023-08-08T12:03:40;7.60;;;3.20;;
8281;SDS011;25606;42.686;23.136;2023-08-08T12:06:12;10.67;;;3.40;;
8281;SDS011;25606;42.686;23.136;2023-08-08T12:08:40;13.05;;;3.83;;
8281;SDS011;25606;42.686;23.136;2023-08-08T12:11:08;10.93;;;3.47;;
8281;SDS011;25606;42.686;23.136;2023-08-08T12:13:36;10.68;;;3.50;;
8281;SDS011;25606;42.686;23.136;2023-08-08T12:16:05;9.45;;;2.55;;
8281;SDS011;25606;42.686;23.136;2023-08-08T12:18:32;23.63;;;12.45;;
8281;SDS011;25606;42.686;23.136;2023-08-08T12:21:01;54.72;;;48.85;;
8281;SDS011;25606;42.686;23.136;2023-08-08T12:23:28;38.95;;;33.28;;
8281;SDS011;25606;42.686;23.136;2023-08-08T12:25:56;25.42;;;14.85;;
8281;SDS011;25606;42.686;23.136;2023-08-08T12:28:24;25.95;;;8.27;;
8281;SDS011;25606;42.686;23.136;2023-08-08T12:30:51;19.20;;;5.43;;
8281;SDS011;25606;42.686;23.136;2023-08-08T12:33:21;17.33;;;4.60;;
8281;SDS011;25606;42.686;23.136;2023-08-08T12:35:52;18.95;;;4.93;;
8281;SDS011;25606;42.686;23.136;2023-08-08T12:38:21;24.20;;;11.38;;
8281;SDS011;25606;42.686;23.136;2023-08-08T12:40:48;33.92;;;26.45;;
8281;SDS011;25606;42.686;23.136;2023-08-08T12:43:16;47.72;;;41.88;;
8281;SDS011;25606;42.686;23.136;2023-08-08T12:45:43;31.15;;;24.02;;
8281;SDS011;25606;42.686;23.136;2023-08-08T12:48:11;18.35;;;7.22;;
8281;SDS011;25606;42.686;23.136;2023-08-08T12:50:38;16.15;;;4.32;;
8281;SDS011;25606;42.686;23.136;2023-08-08T12:53:05;16.95;;;5.63;;
8281;SDS011;25606;42.686;23.136;2023-08-08T12:55:34;8.80;;;4.78;;
8281;SDS011;25606;42.686;23.136;2023-08-08T12:58:02;29.05;;;15.75;;
8281;SDS011;25606;42.686;23.136;2023-08-08T13:00:30;40.38;;;33.47;;
8281;SDS011;25606;42.686;23.136;2023-08-08T13:02:57;71.07;;;64.43;;
8281;SDS011;25606;42.686;23.136;2023-08-08T13:05:25;127.10;;;116.47;;
8281;SDS011;25606;42.686;23.136;2023-08-08T13:07:52;164.40;;;150.38;;
8281;SDS011;25606;42.686;23.136;2023-08-08T13:10:19;193.20;;;176.90;;
8281;SDS011;25606;42.686;23.136;2023-08-08T13:12:48;205.52;;;188.50;;
8281;SDS011;25606;42.686;23.136;2023-08-08T13:15:15;214.68;;;197.05;;
8281;SDS011;25606;42.686;23.136;2023-08-08T13:17:43;224.13;;;206.10;;
8281;SDS011;25606;42.686;23.136;2023-08-08T13:20:10;221.75;;;204.45;;
8281;SDS011;25606;42.686;23.136;2023-08-08T13:22:38;217.95;;;200.50;;
8281;SDS011;25606;42.686;23.136;2023-08-08T13:25:07;208.00;;;191.15;;
8281;SDS011;25606;42.686;23.136;2023-08-08T13:27:35;160.75;;;148.23;;
8281;SDS011;25606;42.686;23.136;2023-08-08T13:30:04;167.80;;;154.05;;
8281;SDS011;25606;42.686;23.136;2023-08-08T13:32:32;134.98;;;124.32;;
8281;SDS011;25606;42.686;23.136;2023-08-08T13:34:59;171.50;;;157.60;;
8281;SDS011;25606;42.686;23.136;2023-08-08T13:37:26;149.35;;;137.25;;
8281;SDS011;25606;42.686;23.136;2023-08-08T13:39:54;167.50;;;154.57;;
8281;SDS011;25606;42.686;23.136;2023-08-08T13:42:21;156.25;;;144.23;;
8281;SDS011;25606;42.686;23.136;2023-08-08T13:44:48;145.70;;;133.57;;
8281;SDS011;25606;42.686;23.136;2023-08-08T13:47:17;186.55;;;171.30;;
8281;SDS011;25606;42.686;23.136;2023-08-08T13:49:45;222.30;;;204.20;;
8281;SDS011;25606;42.686;23.136;2023-08-08T13:52:12;209.15;;;192.50;;
8281;SDS011;25606;42.686;23.136;2023-08-08T13:54:39;238.05;;;218.63;;
8281;SDS011;25606;42.686;23.136;2023-08-08T13:57:07;260.20;;;239.43;;
8281;SDS011;25606;42.686;23.136;2023-08-08T13:59:34;248.45;;;228.82;;
8281;SDS011;25606;42.686;23.136;2023-08-08T14:02:02;175.23;;;161.45;;
8281;SDS011;25606;42.686;23.136;2023-08-08T14:04:31;129.70;;;119.18;;
8281;SDS011;25606;42.686;23.136;2023-08-08T14:06:58;125.85;;;115.78;;
8281;SDS011;25606;42.686;23.136;2023-08-08T14:09:25;139.95;;;128.50;;
8281;SDS011;25606;42.686;23.136;2023-08-08T14:11:52;163.02;;;149.30;;
8281;SDS011;25606;42.686;23.136;2023-08-08T14:14:20;168.27;;;154.80;;
8281;SDS011;25606;42.686;23.136;2023-08-08T14:16:47;188.20;;;173.00;;
8281;SDS011;25606;42.686;23.136;2023-08-08T14:19:14;215.38;;;197.80;;
8281;SDS011;25606;42.686;23.136;2023-08-08T14:21:43;221.30;;;203.80;;
8281;SDS011;25606;42.686;23.136;2023-08-08T14:24:11;181.18;;;166.80;;
8281;SDS011;25606;42.686;23.136;2023-08-08T14:26:38;211.27;;;194.00;;
8281;SDS011;25606;42.686;23.136;2023-08-08T14:29:05;204.60;;;188.38;;
8281;SDS011;25606;42.686;23.136;2023-08-08T14:31:33;215.50;;;198.40;;
8281;SDS011;25606;42.686;23.136;2023-08-08T14:34:00;173.02;;;159.27;;
8281;SDS011;25606;42.686;23.136;2023-08-08T14:36:28;134.48;;;124.30;;
8281;SDS011;25606;42.686;23.136;2023-08-08T14:38:57;61.70;;;55.95;;
8281;SDS011;25606;42.686;23.136;2023-08-08T14:41:26;33.08;;;15.50;;